createdAt,value
2023-03-29T00:02:35.824Z,62.60
2023-03-29T00:05:35.561Z,62.30
2023-03-29T00:08:35.695Z,62.40
2023-03-29T00:11:33.996Z,62.00
2023-03-29T00:14:32.265Z,62.20
2023-03-29T00:17:30.503Z,61.50
2023-03-29T00:20:29.404Z,61.60
2023-03-29T00:23:27.316Z,61.80
2023-03-29T00:26:25.453Z,61.80
2023-03-29T00:29:23.364Z,61.50
2023-03-29T00:32:21.331Z,61.40
2023-03-29T00:35:20.071Z,61.90
2023-03-29T00:38:18.523Z,61.40
2023-03-29T00:41:16.469Z,61.20
2023-03-29T00:44:44.988Z,61.20
2023-03-29T00:47:50.315Z,61.00
2023-03-29T00:51:02.340Z,62.10
2023-03-29T00:54:02.405Z,62.20
2023-03-29T00:57:04.630Z,61.50
2023-03-29T01:00:05.782Z,60.10
2023-03-29T01:03:09.628Z,59.00
2023-03-29T01:06:09.660Z,59.20
2023-03-29T01:09:13.321Z,58.60
2023-03-29T01:12:19.788Z,58.70
2023-03-29T01:15:23.098Z,59.10
2023-03-29T01:18:23.565Z,59.00
2023-03-29T01:21:28.447Z,58.50
2023-03-29T01:24:42.427Z,57.50
2023-03-29T01:27:54.590Z,55.50
2023-03-29T01:30:57.132Z,54.20
2023-03-29T01:34:03.198Z,53.70
2023-03-29T01:37:08.211Z,54.70
2023-03-29T01:40:06.998Z,53.70
2023-03-29T01:43:18.089Z,52.10
2023-03-29T01:46:25.634Z,51.50
2023-03-29T01:49:32.989Z,50.30
2023-03-29T01:52:37.511Z,49.20
2023-03-29T01:55:39.419Z,51.70
2023-03-29T01:58:44.038Z,50.90
2023-03-29T02:01:49.726Z,49.90
2023-03-29T02:04:52.881Z,49.60
2023-03-29T02:07:54.092Z,48.30
2023-03-29T02:10:52.570Z,48.10
2023-03-29T02:13:50.352Z,48.70
2023-03-29T02:16:50.205Z,49.30
2023-03-29T02:19:55.509Z,49.80
2023-03-29T02:23:05.199Z,50.10
2023-03-29T02:26:04.471Z,50.20
2023-03-29T02:29:02.606Z,50.80
2023-03-29T02:32:10.549Z,51.30
2023-03-29T02:35:13.945Z,51.10
2023-03-29T02:38:12.506Z,50.00
2023-03-29T02:41:11.422Z,49.30
2023-03-29T02:44:14.228Z,48.70
2023-03-29T02:47:19.285Z,48.20
2023-03-29T02:50:17.201Z,47.20
2023-03-29T02:53:19.859Z,47.00
2023-03-29T02:56:17.634Z,46.80
2023-03-29T02:59:17.294Z,46.20
2023-03-29T03:02:15.517Z,46.00
2023-03-29T03:05:13.791Z,46.00
2023-03-29T03:08:11.959Z,45.60
2023-03-29T03:11:09.853Z,46.10
2023-03-29T03:14:08.102Z,45.00
2023-03-29T03:17:05.980Z,45.20
2023-03-29T03:20:05.702Z,45.70
2023-03-29T03:23:04.603Z,45.10
2023-03-29T03:26:02.530Z,44.80
2023-03-29T03:29:01.473Z,44.50
2023-03-29T03:31:59.344Z,44.60
2023-03-29T03:34:57.271Z,43.70
2023-03-29T03:37:55.091Z,43.20
2023-03-29T03:40:55.685Z,43.30
2023-03-29T03:43:53.553Z,42.90
2023-03-29T03:46:51.610Z,43.00
2023-03-29T03:49:49.406Z,42.20
2023-03-29T03:52:47.354Z,42.30
2023-03-29T03:55:49.819Z,41.70
2023-03-29T03:58:48.251Z,42.20
2023-03-29T04:01:46.125Z,41.70
2023-03-29T04:04:44.110Z,42.60
2023-03-29T04:07:41.922Z,42.30
2023-03-29T04:10:40.431Z,43.00
2023-03-29T04:13:38.257Z,42.80
2023-03-29T04:16:36.335Z,42.70
2023-03-29T04:19:34.138Z,43.10
2023-03-29T04:22:32.230Z,43.10
2023-03-29T04:25:30.421Z,43.00
2023-03-29T04:28:28.353Z,42.30
2023-03-29T04:31:26.524Z,42.10
2023-03-29T04:34:24.469Z,42.60
2023-03-29T04:37:22.911Z,42.40
2023-03-29T04:40:21.548Z,41.70
2023-03-29T04:43:19.334Z,41.50
2023-03-29T04:46:17.631Z,41.60
2023-03-29T04:49:15.544Z,41.50
2023-03-29T04:52:14.291Z,41.80
2023-03-29T04:55:12.602Z,41.00
2023-03-29T04:58:10.771Z,41.60
2023-03-29T05:01:08.535Z,41.60
2023-03-29T05:04:06.557Z,41.30
2023-03-29T05:07:04.999Z,40.50
2023-03-29T05:10:02.973Z,40.80
2023-03-29T05:13:00.788Z,40.10
2023-03-29T05:15:58.748Z,40.70
2023-03-29T05:18:57.649Z,39.70
2023-03-29T05:21:55.525Z,40.30
2023-03-29T05:24:53.434Z,40.80
2023-03-29T05:27:51.289Z,39.60
2023-03-29T05:30:59.417Z,40.60
2023-03-29T05:33:57.442Z,39.90
2023-03-29T05:36:57.352Z,39.10
2023-03-29T05:40:05.886Z,38.70
2023-03-29T05:43:04.494Z,37.90
2023-03-29T05:46:09.480Z,37.50
2023-03-29T05:49:07.286Z,38.20
2023-03-29T05:52:05.176Z,38.30
2023-03-29T05:55:04.766Z,37.20
2023-03-29T05:58:02.910Z,36.60
2023-03-29T06:01:01.056Z,36.90
2023-03-29T06:03:59.363Z,37.30
2023-03-29T06:06:57.941Z,36.10
2023-03-29T06:09:56.143Z,37.00
2023-03-29T06:12:53.965Z,37.20
2023-03-29T06:15:52.404Z,36.90
2023-03-29T06:18:50.331Z,36.40
2023-03-29T06:21:48.198Z,36.40
2023-03-29T06:24:45.976Z,35.90
2023-03-29T06:27:43.852Z,35.00
2023-03-29T06:30:42.675Z,34.00
2023-03-29T06:33:42.701Z,33.40
2023-03-29T06:36:40.586Z,32.60
2023-03-29T06:39:38.480Z,32.50
2023-03-29T06:42:36.381Z,31.80
2023-03-29T06:45:37.342Z,31.10
2023-03-29T06:48:35.115Z,30.70
2023-03-29T06:51:33.090Z,32.20
2023-03-29T06:54:31.718Z,31.00
2023-03-29T06:57:29.657Z,31.30
2023-03-29T07:00:28.580Z,31.10
2023-03-29T07:03:26.716Z,31.20
2023-03-29T07:06:24.638Z,30.80
2023-03-29T07:09:22.514Z,30.60
2023-03-29T07:12:22.751Z,29.90
2023-03-29T07:15:22.314Z,29.80
2023-03-29T07:18:20.354Z,29.80
2023-03-29T07:21:18.271Z,29.80
2023-03-29T07:24:16.176Z,29.30
2023-03-29T07:27:18.480Z,29.70
2023-03-29T07:30:19.112Z,29.10
2023-03-29T07:33:17.163Z,28.80
2023-03-29T07:36:16.115Z,28.30
2023-03-29T07:39:14.314Z,29.00
2023-03-29T07:42:12.094Z,28.00
2023-03-29T07:45:10.758Z,27.90
2023-03-29T07:48:09.008Z,27.40
2023-03-29T07:51:07.782Z,27.80
2023-03-29T07:54:06.942Z,27.60
2023-03-29T07:57:05.217Z,26.80
2023-03-29T08:00:19.237Z,26.70
2023-03-29T08:03:19.881Z,26.50
2023-03-29T08:06:18.974Z,26.90
2023-03-29T08:09:17.162Z,26.20
2023-03-29T08:12:16.778Z,25.90
2023-03-29T08:15:15.263Z,25.80
2023-03-29T08:18:13.242Z,25.60
2023-03-29T08:21:11.543Z,25.70
2023-03-29T08:24:09.825Z,25.90
2023-03-29T08:27:07.725Z,25.70
2023-03-29T08:30:08.727Z,26.00
2023-03-29T08:33:07.131Z,25.30
2023-03-29T08:36:05.401Z,26.00
2023-03-29T08:39:04.011Z,25.60
2023-03-29T08:42:21.214Z,25.40
2023-03-29T08:45:36.163Z,25.30
2023-03-29T08:48:42.813Z,24.10
2023-03-29T08:51:46.695Z,24.90
2023-03-29T08:54:49.275Z,24.10
2023-03-29T08:57:49.947Z,24.80
2023-03-29T09:00:52.596Z,24.40
2023-03-29T09:03:52.429Z,24.80
2023-03-29T09:06:50.793Z,25.30
2023-03-29T09:09:49.503Z,25.70
2023-03-29T09:13:09.602Z,26.20
2023-03-29T09:16:38.207Z,26.10
2023-03-29T09:19:52.957Z,26.80
2023-03-29T09:23:06.433Z,24.90
2023-03-29T09:26:18.823Z,24.80
2023-03-29T09:29:39.058Z,25.00
2023-03-29T09:32:51.879Z,25.20
2023-03-29T09:35:58.968Z,24.40
2023-03-29T09:38:57.491Z,23.80
2023-03-29T09:42:05.023Z,23.60
2023-03-29T09:45:09.069Z,23.80
2023-03-29T09:48:19.946Z,23.60
2023-03-29T09:51:20.256Z,23.70
2023-03-29T09:54:18.362Z,24.00
2023-03-29T09:57:19.286Z,24.00
2023-03-29T10:00:18.380Z,24.60
2023-03-29T10:03:21.796Z,24.60
2023-03-29T10:06:24.700Z,24.60
2023-03-29T10:09:25.309Z,25.40
2023-03-29T10:12:23.840Z,25.10
2023-03-29T10:15:29.806Z,24.60
2023-03-29T10:18:31.205Z,24.60
2023-03-29T10:21:30.919Z,24.40
2023-03-29T10:24:29.126Z,24.40
2023-03-29T10:27:30.692Z,24.40
2023-03-29T10:30:29.219Z,24.90
2023-03-29T10:33:32.407Z,25.50
2023-03-29T10:36:30.566Z,25.00
2023-03-29T10:39:30.737Z,24.50
2023-03-29T10:42:29.790Z,25.00
2023-03-29T10:45:32.274Z,25.30
2023-03-29T10:48:31.821Z,24.90
2023-03-29T10:51:30.844Z,24.70
2023-03-29T10:54:34.291Z,25.40
2023-03-29T10:57:58.663Z,25.40
2023-03-29T11:00:58.213Z,25.90
2023-03-29T11:04:12.147Z,25.80
2023-03-29T11:07:52.612Z,25.60
2023-03-29T11:11:12.684Z,25.80
2023-03-29T11:14:33.978Z,26.00
2023-03-29T11:17:51.393Z,26.00
2023-03-29T11:21:10.676Z,26.00
2023-03-29T11:24:37.919Z,27.40
2023-03-29T11:27:45.505Z,27.20
2023-03-29T11:30:51.762Z,26.80
2023-03-29T11:34:10.789Z,27.30
2023-03-29T11:37:24.611Z,27.00
2023-03-29T11:40:50.057Z,27.00
2023-03-29T11:44:00.971Z,27.00
2023-03-29T11:47:10.452Z,27.10
2023-03-29T11:50:31.903Z,27.10
2023-03-29T11:53:43.280Z,27.00
2023-03-29T11:56:45.547Z,27.10
2023-03-29T12:00:00.803Z,27.30
2023-03-29T12:03:05.489Z,27.60
2023-03-29T12:06:15.692Z,27.70
2023-03-29T12:09:34.963Z,28.00
2023-03-29T12:13:04.369Z,28.30
2023-03-29T12:16:17.025Z,28.70
2023-03-29T12:19:22.756Z,28.60
2023-03-29T12:22:21.264Z,29.10
2023-03-29T12:25:32.312Z,29.00
2023-03-29T12:28:57.148Z,28.90
2023-03-29T12:32:25.085Z,29.40
2023-03-29T12:35:45.051Z,29.30
2023-03-29T12:38:44.822Z,29.40
2023-03-29T12:41:49.336Z,29.70
2023-03-29T12:44:57.619Z,29.70
2023-03-29T12:47:56.949Z,29.80
2023-03-29T12:51:01.833Z,29.60
2023-03-29T12:54:16.937Z,29.90
2023-03-29T12:57:45.629Z,29.80
2023-03-29T13:00:45.822Z,30.20
2023-03-29T13:03:52.573Z,30.60
2023-03-29T13:07:03.552Z,30.90
2023-03-29T13:10:04.816Z,32.20
2023-03-29T13:13:16.218Z,33.00
2023-03-29T13:16:16.905Z,33.50
2023-03-29T13:19:29.046Z,33.20
2023-03-29T13:22:57.700Z,33.40
2023-03-29T13:26:18.384Z,33.70
2023-03-29T13:29:40.579Z,34.00
2023-03-29T13:32:53.299Z,35.00
2023-03-29T13:36:04.077Z,35.00
2023-03-29T13:39:05.933Z,34.80
2023-03-29T13:42:22.316Z,34.60
2023-03-29T13:45:29.328Z,35.70
2023-03-29T13:48:54.348Z,35.20
2023-03-29T13:52:16.795Z,35.40
2023-03-29T13:55:28.982Z,35.60
2023-03-29T13:58:43.458Z,35.40
2023-03-29T14:01:49.939Z,35.10
2023-03-29T14:04:51.456Z,35.20
2023-03-29T14:07:53.443Z,35.50
2023-03-29T14:10:51.413Z,35.60
2023-03-29T14:13:51.921Z,35.40
2023-03-29T14:16:49.813Z,35.90
2023-03-29T14:19:48.898Z,35.90
2023-03-29T14:22:47.014Z,35.60
2023-03-29T14:25:44.906Z,35.60
2023-03-29T14:28:51.966Z,35.70
2023-03-29T14:31:50.759Z,35.50
2023-03-29T14:34:50.711Z,35.60
2023-03-29T14:37:49.846Z,35.80
2023-03-29T14:40:47.624Z,35.60
2023-03-29T14:43:47.148Z,36.00
2023-03-29T14:46:46.183Z,36.10
2023-03-29T14:49:45.269Z,36.20
2023-03-29T14:52:45.673Z,36.20
2023-03-29T14:55:47.810Z,36.60
2023-03-29T14:58:47.823Z,36.50
2023-03-29T15:01:45.850Z,37.00
2023-03-29T15:04:43.670Z,37.50
2023-03-29T15:07:44.348Z,37.30
2023-03-29T15:10:44.913Z,37.60
2023-03-29T15:13:44.636Z,37.40
2023-03-29T15:16:45.630Z,37.70
2023-03-29T15:19:43.517Z,37.60
2023-03-29T15:22:53.198Z,38.10
2023-03-29T15:26:09.308Z,38.10
2023-03-29T15:29:23.795Z,38.50
2023-03-29T15:32:24.018Z,38.50
2023-03-29T15:35:24.557Z,38.40
2023-03-29T15:38:27.644Z,38.20
2023-03-29T15:41:28.449Z,38.20
2023-03-29T15:44:35.837Z,37.30
2023-03-29T15:47:33.676Z,37.30
2023-03-29T15:50:33.078Z,37.20
2023-03-29T15:53:31.156Z,37.20
2023-03-29T15:56:29.235Z,37.00
2023-03-29T15:59:27.036Z,37.40
2023-03-29T16:02:26.216Z,37.10
2023-03-29T16:05:24.030Z,37.10
2023-03-29T16:08:22.004Z,37.00
2023-03-29T16:11:19.776Z,37.00
2023-03-29T16:14:33.885Z,37.40
2023-03-29T16:17:31.801Z,37.30
2023-03-29T16:20:29.742Z,37.20
2023-03-29T16:23:27.481Z,37.20
2023-03-29T16:26:26.785Z,37.10
2023-03-29T16:29:25.818Z,37.10
2023-03-29T16:32:23.701Z,37.20
2023-03-29T16:35:31.763Z,37.30
2023-03-29T16:38:29.898Z,37.50
2023-03-29T16:41:28.238Z,37.60
2023-03-29T16:44:28.424Z,37.50
2023-03-29T16:47:26.466Z,37.90
2023-03-29T16:50:24.700Z,38.30
2023-03-29T16:53:22.829Z,38.30
2023-03-29T16:56:21.331Z,38.30
2023-03-29T16:59:19.110Z,39.50
2023-03-29T17:02:17.007Z,39.40
2023-03-29T17:05:14.758Z,39.80
2023-03-29T17:08:12.596Z,40.20
2023-03-29T17:11:11.954Z,41.10
2023-03-29T17:14:10.693Z,40.30
2023-03-29T17:17:08.600Z,40.40
2023-03-29T17:20:09.256Z,41.00
2023-03-29T17:23:07.207Z,41.50
2023-03-29T17:26:06.600Z,42.00
2023-03-29T17:29:04.874Z,42.10
2023-03-29T17:32:02.745Z,42.40
2023-03-29T17:35:00.867Z,41.70
2023-03-29T17:38:01.038Z,41.30
2023-03-29T17:40:58.756Z,41.70
2023-03-29T17:43:56.702Z,41.50
2023-03-29T17:46:54.534Z,42.00
2023-03-29T17:49:52.421Z,42.10
2023-03-29T17:52:50.198Z,42.20
2023-03-29T17:55:48.370Z,42.30
2023-03-29T17:58:46.250Z,42.40
2023-03-29T18:01:44.374Z,42.60
2023-03-29T18:04:42.199Z,42.70
2023-03-29T18:07:40.182Z,42.50
2023-03-29T18:10:38.483Z,42.50
2023-03-29T18:13:36.391Z,42.90
2023-03-29T18:16:34.646Z,42.80
2023-03-29T18:19:32.606Z,42.30
2023-03-29T18:22:33.247Z,43.00
2023-03-29T18:25:31.086Z,42.80
2023-03-29T18:28:29.228Z,44.00
2023-03-29T18:31:28.575Z,43.00
2023-03-29T18:34:26.721Z,45.80
2023-03-29T18:37:24.752Z,46.60
2023-03-29T18:40:25.151Z,47.00
2023-03-29T18:43:23.072Z,47.70
2023-03-29T18:46:20.993Z,47.00
2023-03-29T18:49:19.690Z,47.40
2023-03-29T18:52:17.510Z,47.60
2023-03-29T18:55:15.578Z,47.60
2023-03-29T18:58:15.582Z,48.10
2023-03-29T19:01:14.495Z,48.10
2023-03-29T19:04:13.868Z,48.80
2023-03-29T19:07:11.818Z,49.10
2023-03-29T19:10:10.189Z,49.30
2023-03-29T19:13:08.254Z,49.50
2023-03-29T19:16:06.536Z,49.50
2023-03-29T19:19:06.387Z,49.70
2023-03-29T19:22:04.555Z,49.90
2023-03-29T19:25:02.707Z,50.00
2023-03-29T19:40:29.321Z,51.90
2023-03-29T19:43:27.605Z,52.50
2023-03-29T19:46:26.028Z,53.60
2023-03-29T19:49:23.832Z,54.20
2023-03-29T19:52:24.535Z,54.10
2023-03-29T19:55:22.705Z,54.30
2023-03-29T19:58:20.796Z,54.00
2023-03-29T20:01:21.404Z,53.90
2023-03-29T20:04:21.416Z,54.80
2023-03-29T20:07:19.178Z,54.60
2023-03-29T20:10:17.419Z,54.20
2023-03-29T20:13:17.341Z,53.90
2023-03-29T20:16:24.933Z,53.70
2023-03-29T20:19:25.755Z,54.40
2023-03-29T20:22:26.605Z,53.60
2023-03-29T20:25:25.216Z,53.80
2023-03-29T20:28:24.609Z,53.80
2023-03-29T20:31:22.661Z,53.70
2023-03-29T20:34:20.657Z,53.70
2023-03-29T20:37:18.423Z,53.60
2023-03-29T20:40:16.598Z,53.70
2023-03-29T20:43:18.824Z,53.90
2023-03-29T20:46:24.422Z,54.30
2023-03-29T20:49:26.757Z,54.60
2023-03-29T20:52:25.309Z,54.70
2023-03-29T20:55:24.146Z,54.40
2023-03-29T20:58:22.661Z,54.40
2023-03-29T21:01:22.314Z,54.60
2023-03-29T21:04:20.627Z,54.60
2023-03-29T21:07:20.416Z,54.70
2023-03-29T21:10:18.449Z,55.00
2023-03-29T21:13:16.330Z,55.30
2023-03-29T21:16:14.478Z,55.60
2023-03-29T21:19:12.510Z,55.80
2023-03-29T21:22:14.276Z,56.20
2023-03-29T21:25:16.035Z,56.50
2023-03-29T21:28:14.000Z,56.50
2023-03-29T21:31:12.062Z,56.70
2023-03-29T21:34:10.104Z,57.60
2023-03-29T21:37:07.961Z,56.80
2023-03-29T21:40:07.100Z,57.10
2023-03-29T21:43:05.248Z,57.30
2023-03-29T21:46:03.138Z,57.60
2023-03-29T21:49:01.050Z,57.30
2023-03-29T21:51:58.989Z,57.30
2023-03-29T21:54:56.730Z,57.30
2023-03-29T21:57:54.836Z,57.40
2023-03-29T22:00:52.740Z,57.70
2023-03-29T22:03:51.053Z,58.30
2023-03-29T22:06:49.893Z,57.90
2023-03-29T22:09:47.784Z,59.10
2023-03-29T22:12:45.550Z,58.90
2023-03-29T22:15:43.397Z,59.00
2023-03-29T22:18:44.613Z,59.20
2023-03-29T22:21:43.121Z,59.70
2023-03-29T22:24:41.805Z,59.60
2023-03-29T22:27:40.114Z,59.30
2023-03-29T22:30:37.880Z,59.90
2023-03-29T22:33:37.328Z,59.00
2023-03-29T22:36:36.572Z,59.20
2023-03-29T22:39:37.326Z,59.20
2023-03-29T22:42:35.103Z,58.60
2023-03-29T22:45:32.957Z,58.90
2023-03-29T22:48:31.498Z,59.00
2023-03-29T22:51:29.472Z,58.90
2023-03-29T22:54:27.724Z,59.10
2023-03-29T22:57:25.740Z,59.30
2023-03-29T23:00:23.603Z,59.40
2023-03-29T23:03:23.768Z,59.20
2023-03-29T23:06:21.578Z,59.60
2023-03-29T23:09:19.421Z,59.40
2023-03-29T23:12:28.871Z,59.30
2023-03-29T23:15:29.022Z,59.40
2023-03-29T23:18:29.045Z,59.30
2023-03-29T23:21:28.567Z,58.90
2023-03-29T23:24:26.310Z,58.50
2023-03-29T23:27:24.237Z,58.40
2023-03-29T23:30:22.701Z,59.20
2023-03-29T23:33:22.404Z,59.70
2023-03-29T23:36:22.073Z,59.90
2023-03-29T23:39:19.969Z,59.80
2023-03-29T23:42:19.504Z,59.90
2023-03-29T23:45:19.543Z,59.60
2023-03-29T23:48:17.313Z,59.90
2023-03-29T23:51:15.743Z,60.20
2023-03-29T23:54:13.603Z,59.80
2023-03-29T23:57:11.493Z,59.60
